createdAt,value
2023-04-26T00:00:45.752Z,18.83
2023-04-26T00:03:14.677Z,20.70
2023-04-26T00:05:44.045Z,20.05
2023-04-26T00:08:11.698Z,19.27
2023-04-26T00:10:40.701Z,21.75
2023-04-26T00:13:08.458Z,21.33
2023-04-26T00:15:36.490Z,18.48
2023-04-26T00:18:04.313Z,21.63
2023-04-26T00:20:31.990Z,18.40
2023-04-26T00:23:01.180Z,20.67
2023-04-26T00:25:28.847Z,17.27
2023-04-26T00:27:56.850Z,21.98
2023-04-26T00:30:24.492Z,20.67
2023-04-26T00:32:52.141Z,17.20
2023-04-26T00:35:19.966Z,16.02
2023-04-26T00:37:47.659Z,20.55
2023-04-26T00:40:17.371Z,19.08
2023-04-26T00:42:45.099Z,20.55
2023-04-26T00:45:12.896Z,20.55
2023-04-26T00:47:41.324Z,20.45
2023-04-26T00:50:10.599Z,21.10
2023-04-26T00:52:38.616Z,29.38
2023-04-26T00:55:07.383Z,26.98
2023-04-26T00:57:37.614Z,22.58
2023-04-26T01:00:06.542Z,28.30
2023-04-26T01:02:34.420Z,30.17
2023-04-26T01:05:02.226Z,27.00
2023-04-26T01:07:29.976Z,27.70
2023-04-26T01:09:59.269Z,22.63
2023-04-26T01:12:27.828Z,24.38
2023-04-26T01:14:57.982Z,21.15
2023-04-26T01:17:25.918Z,20.73
2023-04-26T01:19:53.915Z,19.48
2023-04-26T01:22:21.846Z,20.38
2023-04-26T01:24:52.089Z,22.17
2023-04-26T01:27:19.792Z,18.20
2023-04-26T01:29:47.643Z,15.63
2023-04-26T01:32:15.301Z,14.60
2023-04-26T01:34:42.989Z,18.02
2023-04-26T01:37:10.768Z,14.95
2023-04-26T01:39:38.642Z,20.25
2023-04-26T01:42:07.760Z,18.90
2023-04-26T01:44:35.423Z,14.32
2023-04-26T01:47:03.221Z,19.60
2023-04-26T01:49:31.338Z,16.27
2023-04-26T01:52:00.124Z,19.92
2023-04-26T01:54:27.804Z,22.60
2023-04-26T01:56:55.596Z,15.70
2023-04-26T01:59:24.665Z,20.25
2023-04-26T02:01:52.367Z,20.30
2023-04-26T02:04:20.100Z,21.10
2023-04-26T02:06:47.774Z,18.25
2023-04-26T02:09:15.845Z,19.98
2023-04-26T02:11:43.582Z,18.92
2023-04-26T02:14:11.361Z,18.83
2023-04-26T02:16:41.775Z,19.30
2023-04-26T02:19:10.903Z,20.42
2023-04-26T02:21:52.672Z,19.08
2023-04-26T02:24:21.481Z,21.10
2023-04-26T02:26:49.156Z,19.42
2023-04-26T02:29:16.893Z,20.48
2023-04-26T02:31:46.023Z,22.33
2023-04-26T02:34:13.832Z,18.75
2023-04-26T02:36:41.500Z,21.20
2023-04-26T02:39:09.908Z,16.15
2023-04-26T02:41:37.571Z,18.42
2023-04-26T02:44:05.526Z,21.90
2023-04-26T02:46:33.181Z,20.65
2023-04-26T02:49:02.245Z,17.00
2023-04-26T02:51:29.920Z,19.33
2023-04-26T02:53:57.596Z,18.17
2023-04-26T02:56:25.537Z,21.45
2023-04-26T02:58:53.395Z,22.20
2023-04-26T03:01:21.364Z,24.55
2023-04-26T03:03:49.318Z,18.77
2023-04-26T03:06:18.482Z,20.98
2023-04-26T03:08:46.141Z,18.27
2023-04-26T03:11:13.816Z,22.75
2023-04-26T03:13:41.543Z,21.63
2023-04-26T03:16:09.495Z,17.65
2023-04-26T03:18:37.464Z,20.45
2023-04-26T03:21:05.124Z,20.08
2023-04-26T03:23:34.170Z,23.33
2023-04-26T03:26:01.941Z,24.98
2023-04-26T03:28:29.572Z,19.20
2023-04-26T03:30:57.363Z,20.52
2023-04-26T03:33:25.177Z,19.27
2023-04-26T03:35:52.846Z,22.33
2023-04-26T03:38:20.702Z,21.30
2023-04-26T03:40:49.736Z,19.80
2023-04-26T03:43:17.429Z,16.90
2023-04-26T03:45:48.735Z,21.05
2023-04-26T03:48:17.121Z,19.95
2023-04-26T03:50:45.996Z,22.90
2023-04-26T03:53:14.046Z,22.48
2023-04-26T03:55:41.759Z,21.10
2023-04-26T03:58:10.786Z,18.27
2023-04-26T04:00:38.809Z,20.25
2023-04-26T04:03:08.482Z,20.85
2023-04-26T04:05:37.229Z,18.35
2023-04-26T04:08:05.314Z,19.85
2023-04-26T04:10:32.967Z,22.17
2023-04-26T04:13:00.676Z,19.38
2023-04-26T04:15:29.826Z,20.75
2023-04-26T04:17:57.512Z,21.92
2023-04-26T04:20:25.215Z,22.55
2023-04-26T04:22:54.105Z,18.52
2023-04-26T04:25:22.668Z,21.20
2023-04-26T04:27:50.330Z,19.02
2023-04-26T04:30:18.028Z,21.40
2023-04-26T04:32:47.105Z,19.50
2023-04-26T04:35:14.965Z,25.13
2023-04-26T04:37:43.944Z,17.42
2023-04-26T04:40:13.389Z,18.45
2023-04-26T04:42:41.138Z,20.98
2023-04-26T04:45:09.971Z,25.25
2023-04-26T04:47:39.671Z,18.33
2023-04-26T04:50:18.088Z,20.05
2023-04-26T04:52:46.192Z,18.85
2023-04-26T04:55:13.944Z,18.75
2023-04-26T04:57:43.104Z,23.50
2023-04-26T05:00:12.921Z,17.38
2023-04-26T05:02:40.794Z,17.80
2023-04-26T05:05:11.709Z,20.40
2023-04-26T05:07:39.462Z,20.52
2023-04-26T05:10:08.017Z,20.02
2023-04-26T05:12:36.582Z,16.60
2023-04-26T05:15:05.082Z,19.35
2023-04-26T05:17:34.666Z,22.10
2023-04-26T05:20:06.421Z,24.63
2023-04-26T05:22:36.793Z,20.63
2023-04-26T05:25:05.345Z,21.25
2023-04-26T05:27:33.024Z,20.45
2023-04-26T05:30:02.090Z,18.55
2023-04-26T05:32:30.105Z,18.77
2023-04-26T05:34:58.093Z,19.83
2023-04-26T05:37:25.856Z,65.97
2023-04-26T05:39:54.974Z,27.70
2023-04-26T05:42:22.723Z,23.23
2023-04-26T05:44:50.370Z,23.67
2023-04-26T05:47:18.042Z,36.17
2023-04-26T05:49:45.679Z,20.20
2023-04-26T05:52:13.325Z,21.92
2023-04-26T05:54:41.086Z,21.48
2023-04-26T05:57:10.171Z,24.38
2023-04-26T05:59:38.190Z,20.65
2023-04-26T06:02:05.891Z,18.80
2023-04-26T06:04:33.758Z,18.73
2023-04-26T06:07:01.678Z,16.65
2023-04-26T06:09:29.340Z,20.38
2023-04-26T06:11:57.066Z,18.08
2023-04-26T06:14:30.572Z,21.02
2023-04-26T06:16:59.096Z,18.30
2023-04-26T06:19:26.950Z,24.45
2023-04-26T06:21:57.198Z,19.63
2023-04-26T06:24:25.864Z,16.63
2023-04-26T06:26:53.642Z,17.52
2023-04-26T06:29:22.322Z,15.57
2023-04-26T06:31:51.393Z,18.38
2023-04-26T06:34:19.093Z,13.40
2023-04-26T06:36:47.254Z,15.82
2023-04-26T06:39:14.942Z,19.58
2023-04-26T06:41:43.102Z,17.02
2023-04-26T06:44:10.762Z,13.63
2023-04-26T06:46:38.919Z,14.38
2023-04-26T06:49:08.131Z,14.48
2023-04-26T06:51:35.751Z,16.08
2023-04-26T06:54:03.448Z,15.23
2023-04-26T06:56:31.210Z,18.60
2023-04-26T06:59:03.253Z,17.00
2023-04-26T07:01:33.885Z,13.35
2023-04-26T07:04:03.224Z,17.25
2023-04-26T07:06:32.591Z,10.32
2023-04-26T07:09:01.560Z,13.43
2023-04-26T07:11:29.578Z,13.05
2023-04-26T07:13:57.714Z,13.52
2023-04-26T07:16:25.923Z,12.48
2023-04-26T07:18:53.877Z,11.88
2023-04-26T07:21:21.560Z,15.00
2023-04-26T07:23:54.692Z,16.77
2023-04-26T07:26:22.692Z,16.77
2023-04-26T07:28:51.957Z,15.48
2023-04-26T07:31:19.820Z,14.07
2023-04-26T07:33:47.624Z,17.13
2023-04-26T07:36:15.417Z,12.55
2023-04-26T07:38:43.089Z,14.90
2023-04-26T07:41:12.998Z,14.85
2023-04-26T07:43:41.247Z,16.35
2023-04-26T07:46:08.955Z,16.02
2023-04-26T07:48:36.706Z,14.20
2023-04-26T07:51:12.857Z,17.55
2023-04-26T07:53:41.035Z,17.13
2023-04-26T07:56:09.873Z,16.88
2023-04-26T07:58:40.013Z,20.00
2023-04-26T08:01:08.681Z,19.08
2023-04-26T08:03:36.905Z,18.02
2023-04-26T08:06:05.049Z,14.70
2023-04-26T08:08:33.518Z,16.98
2023-04-26T08:11:01.335Z,18.35
2023-04-26T08:13:29.595Z,14.82
2023-04-26T08:15:58.796Z,16.95
2023-04-26T08:18:26.733Z,12.90
2023-04-26T08:20:55.218Z,10.52
2023-04-26T08:23:23.580Z,16.17
2023-04-26T08:25:51.544Z,12.25
2023-04-26T08:28:19.311Z,16.83
2023-04-26T08:30:47.163Z,17.10
2023-04-26T08:33:16.235Z,16.60
2023-04-26T08:35:43.922Z,14.80
2023-04-26T08:38:11.628Z,11.38
2023-04-26T08:40:39.530Z,13.43
2023-04-26T08:43:07.199Z,10.80
2023-04-26T08:45:37.436Z,10.80
2023-04-26T08:48:13.383Z,12.40
2023-04-26T08:50:44.956Z,12.20
2023-04-26T08:53:17.710Z,9.38
2023-04-26T08:55:49.832Z,9.00
2023-04-26T08:58:18.996Z,11.50
2023-04-26T09:00:47.287Z,10.70
2023-04-26T09:03:15.925Z,9.85
2023-04-26T09:05:45.670Z,10.90
2023-04-26T09:08:17.298Z,10.90
2023-04-26T09:10:45.179Z,11.82
2023-04-26T09:13:14.324Z,12.90
2023-04-26T09:15:42.277Z,8.98
2023-04-26T09:18:21.252Z,10.57
2023-04-26T09:21:03.783Z,10.85
2023-04-26T09:23:31.680Z,7.00
2023-04-26T09:26:18.050Z,10.93
2023-04-26T09:28:46.464Z,10.23
2023-04-26T09:31:24.442Z,9.68
2023-04-26T09:34:01.538Z,7.68
2023-04-26T09:36:31.965Z,13.40
2023-04-26T09:38:59.843Z,13.32
2023-04-26T09:41:43.764Z,9.88
2023-04-26T09:44:22.970Z,8.20
2023-04-26T09:47:04.665Z,8.93
2023-04-26T09:49:34.528Z,12.40
2023-04-26T09:52:05.479Z,12.15
2023-04-26T09:54:43.765Z,15.43
2023-04-26T09:57:12.055Z,5.93
2023-04-26T09:59:47.453Z,6.55
2023-04-26T10:02:17.409Z,8.77
2023-04-26T10:04:50.117Z,10.20
2023-04-26T10:07:20.573Z,7.55
2023-04-26T10:09:49.082Z,8.82
2023-04-26T10:12:19.413Z,8.02
2023-04-26T10:14:48.298Z,10.80
2023-04-26T10:17:16.332Z,10.30
2023-04-26T10:19:46.393Z,8.82
2023-04-26T10:22:20.531Z,11.27
2023-04-26T10:24:50.595Z,12.75
2023-04-26T10:27:18.351Z,9.65
2023-04-26T10:30:09.152Z,9.05
2023-04-26T10:33:16.423Z,12.90
2023-04-26T10:36:12.616Z,11.30
2023-04-26T10:38:41.968Z,8.63
2023-04-26T10:41:33.857Z,8.77
2023-04-26T10:44:17.563Z,5.53
2023-04-26T10:46:52.289Z,7.78
2023-04-26T10:49:25.730Z,8.67
2023-04-26T10:52:13.583Z,10.27
2023-04-26T10:54:52.938Z,7.60
2023-04-26T10:57:23.162Z,7.35
2023-04-26T11:00:28.547Z,6.55
2023-04-26T11:03:03.482Z,6.45
2023-04-26T11:05:48.678Z,8.80
2023-04-26T11:08:18.184Z,5.72
2023-04-26T11:10:52.300Z,7.25
2023-04-26T11:13:21.789Z,8.82
2023-04-26T11:15:54.325Z,7.47
2023-04-26T11:18:22.340Z,5.60
2023-04-26T11:20:50.324Z,7.28
2023-04-26T11:23:20.214Z,7.43
2023-04-26T11:25:48.440Z,6.22
2023-04-26T11:28:16.465Z,6.00
2023-04-26T11:30:45.738Z,6.60
2023-04-26T11:33:18.880Z,6.78
2023-04-26T11:35:47.675Z,5.38
2023-04-26T11:38:16.439Z,6.47
2023-04-26T11:40:44.912Z,7.13
2023-04-26T11:43:13.748Z,3.63
2023-04-26T11:45:41.539Z,5.72
2023-04-26T11:48:13.509Z,4.95
2023-04-26T11:50:42.660Z,5.80
2023-04-26T11:53:10.712Z,8.00
2023-04-26T11:55:40.621Z,5.13
2023-04-26T11:58:14.141Z,5.10
2023-04-26T12:00:57.978Z,8.75
2023-04-26T12:03:31.061Z,7.68
2023-04-26T12:05:59.032Z,6.97
2023-04-26T12:08:27.469Z,6.95
2023-04-26T12:10:55.346Z,7.43
2023-04-26T12:13:23.020Z,6.03
2023-04-26T12:15:52.416Z,7.35
2023-04-26T12:18:20.408Z,5.78
2023-04-26T12:20:49.525Z,8.48
2023-04-26T12:23:18.737Z,6.70
2023-04-26T12:25:55.659Z,6.60
2023-04-26T12:28:24.165Z,7.43
2023-04-26T12:30:52.676Z,5.68
2023-04-26T12:33:23.114Z,7.85
2023-04-26T12:35:52.491Z,8.02
2023-04-26T12:38:20.363Z,5.95
2023-04-26T12:40:47.986Z,10.73
2023-04-26T12:43:16.817Z,5.57
2023-04-26T12:45:44.605Z,8.40
2023-04-26T12:48:12.945Z,5.60
2023-04-26T12:50:40.720Z,9.18
2023-04-26T12:53:10.941Z,5.68
2023-04-26T12:55:38.711Z,7.35
2023-04-26T12:58:06.395Z,10.48
2023-04-26T13:00:34.311Z,7.00
2023-04-26T13:03:02.492Z,11.40
2023-04-26T13:05:32.245Z,8.07
2023-04-26T13:08:01.867Z,6.80
2023-04-26T13:10:32.867Z,8.48
2023-04-26T13:13:01.324Z,6.90
2023-04-26T13:15:29.840Z,7.45
2023-04-26T13:17:57.713Z,10.40
2023-04-26T13:20:27.205Z,7.60
2023-04-26T13:22:55.995Z,7.50
2023-04-26T13:25:23.786Z,5.50
2023-04-26T13:27:54.686Z,7.90
2023-04-26T13:30:22.452Z,6.68
2023-04-26T13:32:50.209Z,8.77
2023-04-26T13:35:18.193Z,7.15
2023-04-26T13:37:46.365Z,8.45
2023-04-26T13:40:14.466Z,5.82
2023-04-26T13:42:42.561Z,6.28
2023-04-26T13:45:14.291Z,6.03
2023-04-26T13:47:42.108Z,5.47
2023-04-26T13:50:10.741Z,10.13
2023-04-26T13:52:38.584Z,8.65
2023-04-26T13:55:07.412Z,7.70
2023-04-26T13:57:35.081Z,9.20
2023-04-26T14:00:04.030Z,7.65
2023-04-26T14:02:33.243Z,4.32
2023-04-26T14:05:01.252Z,4.82
2023-04-26T14:07:29.078Z,6.00
2023-04-26T14:09:56.852Z,6.18
2023-04-26T14:12:24.513Z,6.30
2023-04-26T14:14:52.327Z,6.82
2023-04-26T14:17:20.040Z,8.48
2023-04-26T14:19:49.108Z,4.93
2023-04-26T14:22:17.810Z,5.22
2023-04-26T14:24:45.531Z,4.97
2023-04-26T14:27:13.245Z,6.78
2023-04-26T14:29:40.985Z,6.70
2023-04-26T14:32:08.797Z,9.63
2023-04-26T14:34:39.079Z,7.85
2023-04-26T14:37:08.241Z,6.63
2023-04-26T14:39:36.002Z,7.50
2023-04-26T14:42:04.073Z,4.60
2023-04-26T14:44:31.837Z,7.60
2023-04-26T14:46:59.501Z,7.70
2023-04-26T14:49:27.188Z,8.68
2023-04-26T14:51:54.855Z,5.25
2023-04-26T14:54:23.959Z,8.82
2023-04-26T14:56:51.912Z,7.78
2023-04-26T14:59:19.591Z,7.80
2023-04-26T15:01:47.400Z,5.82
2023-04-26T15:04:15.409Z,3.78
2023-04-26T15:06:43.300Z,5.15
2023-04-26T15:09:11.512Z,8.02
2023-04-26T15:11:40.514Z,5.88
2023-04-26T15:14:08.199Z,6.22
2023-04-26T15:16:36.154Z,6.18
2023-04-26T15:19:03.863Z,7.25
2023-04-26T15:21:31.753Z,5.47
2023-04-26T15:23:59.410Z,9.20
2023-04-26T15:26:27.296Z,8.25
2023-04-26T15:28:56.340Z,4.90
2023-04-26T15:31:24.300Z,8.88
2023-04-26T15:33:52.202Z,8.05
2023-04-26T15:36:20.550Z,7.40
2023-04-26T15:38:48.743Z,7.20
2023-04-26T15:41:16.471Z,10.45
2023-04-26T15:43:47.136Z,7.80
2023-04-26T15:46:16.539Z,7.78
2023-04-26T15:48:44.370Z,8.07
2023-04-26T15:51:12.062Z,16.52
2023-04-26T15:53:43.659Z,7.45
2023-04-26T15:56:15.405Z,8.95
2023-04-26T15:58:46.239Z,12.48
2023-04-26T16:01:14.611Z,9.82
2023-04-26T16:03:47.219Z,7.85
2023-04-26T16:06:15.480Z,6.88
2023-04-26T16:08:43.377Z,6.68
2023-04-26T16:11:11.179Z,6.88
2023-04-26T16:13:38.886Z,6.25
2023-04-26T16:16:08.024Z,8.25
2023-04-26T16:18:35.992Z,8.77
2023-04-26T16:21:09.606Z,6.70
2023-04-26T16:23:38.000Z,4.50
2023-04-26T16:26:06.196Z,5.13
2023-04-26T16:28:34.269Z,7.15
2023-04-26T16:31:02.238Z,9.23
2023-04-26T16:33:30.052Z,7.35
2023-04-26T16:35:57.701Z,6.15
2023-04-26T16:38:26.780Z,5.88
2023-04-26T16:41:00.062Z,5.57
2023-04-26T16:43:28.520Z,8.70
2023-04-26T16:46:00.625Z,5.53
2023-04-26T16:48:31.285Z,6.97
2023-04-26T16:50:59.487Z,6.82
2023-04-26T16:53:28.548Z,5.13
2023-04-26T16:55:56.496Z,5.00
2023-04-26T16:58:25.131Z,7.22
2023-04-26T17:00:53.330Z,6.95
2023-04-26T17:03:21.617Z,8.07
2023-04-26T17:05:49.671Z,7.85
2023-04-26T17:08:18.484Z,9.52
2023-04-26T17:10:47.935Z,11.00
2023-04-26T17:13:15.821Z,7.32
2023-04-26T17:15:43.875Z,7.97
2023-04-26T17:18:12.286Z,9.85
2023-04-26T17:20:41.470Z,8.50
2023-04-26T17:23:09.524Z,8.35
2023-04-26T17:25:39.630Z,12.43
2023-04-26T17:28:10.535Z,9.07
2023-04-26T17:30:38.285Z,8.60
2023-04-26T17:33:07.525Z,9.82
2023-04-26T17:35:35.429Z,7.65
2023-04-26T17:38:04.022Z,10.85
2023-04-26T17:40:32.072Z,11.00
2023-04-26T17:42:59.922Z,8.73
2023-04-26T17:45:29.210Z,7.03
2023-04-26T17:47:59.771Z,8.95
2023-04-26T17:50:27.484Z,6.53
2023-04-26T17:52:56.054Z,8.38
2023-04-26T17:55:24.535Z,5.40
2023-04-26T17:57:52.262Z,9.15
2023-04-26T18:00:22.236Z,7.90
2023-04-26T18:02:51.647Z,12.82
2023-04-26T18:05:20.001Z,6.63
2023-04-26T18:07:47.881Z,6.47
2023-04-26T18:10:15.655Z,8.45
2023-04-26T18:12:43.610Z,6.35
2023-04-26T18:15:12.391Z,8.27
2023-04-26T18:17:40.350Z,7.20
2023-04-26T18:20:13.346Z,10.95
2023-04-26T18:22:41.591Z,7.05
2023-04-26T18:25:09.988Z,5.72
2023-04-26T18:27:37.792Z,4.57
2023-04-26T18:30:07.850Z,7.43
2023-04-26T18:32:35.750Z,6.57
2023-04-26T18:35:09.247Z,6.18
2023-04-26T18:37:39.633Z,6.43
2023-04-26T18:40:08.746Z,5.43
2023-04-26T18:42:38.771Z,7.07
2023-04-26T18:45:07.840Z,6.28
2023-04-26T18:47:38.215Z,5.15
2023-04-26T18:50:07.190Z,7.68
2023-04-26T18:52:35.831Z,8.10
2023-04-26T18:55:05.555Z,6.88
2023-04-26T18:57:33.226Z,7.47
2023-04-26T19:00:01.147Z,7.32
2023-04-26T19:02:29.476Z,7.13
2023-04-26T19:04:57.775Z,6.80
2023-04-26T19:07:25.817Z,7.72
2023-04-26T19:09:54.859Z,7.50
2023-04-26T19:12:25.136Z,8.48
2023-04-26T19:14:54.100Z,7.40
2023-04-26T19:17:22.096Z,7.20
2023-04-26T19:19:52.155Z,5.10
2023-04-26T19:22:19.998Z,7.38
2023-04-26T19:24:50.159Z,7.55
2023-04-26T19:27:18.562Z,13.90
2023-04-26T19:29:47.862Z,6.57
2023-04-26T19:32:23.689Z,5.55
2023-04-26T19:34:52.238Z,7.82
2023-04-26T19:37:20.265Z,8.60
2023-04-26T19:39:48.100Z,5.93
2023-04-26T19:42:16.230Z,7.00
2023-04-26T19:44:44.144Z,9.77
2023-04-26T19:47:13.802Z,7.25
2023-04-26T19:49:42.283Z,8.57
2023-04-26T19:52:10.116Z,7.32
2023-04-26T19:54:37.898Z,8.52
2023-04-26T19:57:05.658Z,6.90
2023-04-26T19:59:33.351Z,9.65
2023-04-26T20:02:01.174Z,7.75
2023-04-26T20:04:30.621Z,6.35
2023-04-26T20:06:58.466Z,7.47
2023-04-26T20:09:26.282Z,8.23
2023-04-26T20:11:55.507Z,10.18
2023-04-26T20:14:23.699Z,5.95
2023-04-26T20:16:53.645Z,10.63
2023-04-26T20:19:21.372Z,8.65
2023-04-26T20:21:50.724Z,10.75
2023-04-26T20:24:18.427Z,11.65
2023-04-26T20:26:48.524Z,8.20
2023-04-26T20:29:16.259Z,6.22
2023-04-26T20:31:43.993Z,7.90
2023-04-26T20:34:14.402Z,8.90
2023-04-26T20:36:42.109Z,6.45
2023-04-26T20:39:11.425Z,8.65
2023-04-26T20:41:39.147Z,11.85
2023-04-26T20:44:06.966Z,6.72
2023-04-26T20:46:35.281Z,10.25
2023-04-26T20:49:03.068Z,7.03
2023-04-26T20:51:31.291Z,11.15
2023-04-26T20:53:59.062Z,8.90
2023-04-26T20:56:28.353Z,10.02
2023-04-26T20:58:56.690Z,9.07
2023-04-26T21:01:24.467Z,11.73
2023-04-26T21:03:52.267Z,11.10
2023-04-26T21:06:20.094Z,8.25
2023-04-26T21:08:47.881Z,9.02
2023-04-26T21:11:15.682Z,11.25
2023-04-26T21:13:45.749Z,9.07
2023-04-26T21:16:13.538Z,11.45
2023-04-26T21:18:41.327Z,10.13
2023-04-26T21:21:09.023Z,11.05
2023-04-26T21:23:36.696Z,6.93
2023-04-26T21:26:04.510Z,7.53
2023-04-26T21:28:32.260Z,8.93
2023-04-26T21:31:05.671Z,7.82
2023-04-26T21:33:34.138Z,12.75
2023-04-26T21:36:01.866Z,13.68
2023-04-26T21:38:29.541Z,9.75
2023-04-26T21:40:57.248Z,9.52
2023-04-26T21:43:25.051Z,9.77
2023-04-26T21:45:53.157Z,17.58
2023-04-26T21:48:22.225Z,11.43
2023-04-26T21:50:50.433Z,12.48
2023-04-26T21:53:18.189Z,10.57
2023-04-26T21:55:52.103Z,15.82
2023-04-26T21:58:20.118Z,11.38
2023-04-26T22:00:48.042Z,11.70
2023-04-26T22:03:16.285Z,9.65
2023-04-26T22:05:45.616Z,12.80
2023-04-26T22:08:13.314Z,8.90
2023-04-26T22:10:41.850Z,9.27
2023-04-26T22:13:09.588Z,12.50
2023-04-26T22:15:37.359Z,9.55
2023-04-26T22:18:05.405Z,9.82
2023-04-26T22:20:33.174Z,11.48
2023-04-26T22:23:04.336Z,8.45
2023-04-26T22:25:32.059Z,11.02
2023-04-26T22:27:59.917Z,11.60
2023-04-26T22:30:27.695Z,12.38
2023-04-26T22:32:57.421Z,13.10
2023-04-26T22:35:25.844Z,9.45
2023-04-26T22:37:53.798Z,17.67
2023-04-26T22:40:22.982Z,12.00
2023-04-26T22:42:50.779Z,11.98
2023-04-26T22:45:18.692Z,15.05
2023-04-26T22:47:46.466Z,10.10
2023-04-26T22:50:14.174Z,8.70
2023-04-26T23:01:12.113Z,12.88
2023-04-26T23:03:39.884Z,15.88
2023-04-26T23:06:08.210Z,12.77
2023-04-26T23:08:38.158Z,12.85
2023-04-26T23:11:08.216Z,13.05
2023-04-26T23:13:37.048Z,10.75
2023-04-26T23:16:06.818Z,11.23
2023-04-26T23:18:35.097Z,11.73
2023-04-26T23:21:02.758Z,14.60
2023-04-26T23:23:30.466Z,11.32
2023-04-26T23:25:58.177Z,11.55
2023-04-26T23:28:25.916Z,10.93
2023-04-26T23:30:53.550Z,11.80
2023-04-26T23:33:22.766Z,12.68
2023-04-26T23:35:51.966Z,11.20
2023-04-26T23:38:19.721Z,14.05
2023-04-26T23:40:47.519Z,12.50
2023-04-26T23:43:15.233Z,10.75
2023-04-26T23:45:47.261Z,14.23
2023-04-26T23:48:15.179Z,10.80
2023-04-26T23:50:44.437Z,9.30
2023-04-26T23:53:12.122Z,12.30
2023-04-26T23:55:39.910Z,12.40
2023-04-26T23:58:07.613Z,13.07
